sensor_id;sensor_type;location;lat;lon;timestamp;P1;durP1;ratioP1;P2;durP2;ratioP2
69434;SDS011;56625;54.322;18.582;2022-11-09T00:01:03;11.30;;;4.20;;
69434;SDS011;56625;54.322;18.582;2022-11-09T00:03:30;10.30;;;4.40;;
69434;SDS011;56625;54.322;18.582;2022-11-09T00:05:58;12.60;;;4.90;;
69434;SDS011;56625;54.322;18.582;2022-11-09T00:08:26;11.30;;;4.10;;
69434;SDS011;56625;54.322;18.582;2022-11-09T00:10:53;9.80;;;4.10;;
69434;SDS011;56625;54.322;18.582;2022-11-09T00:13:20;10.20;;;3.50;;
69434;SDS011;56625;54.322;18.582;2022-11-09T00:15:47;13.30;;;4.50;;
69434;SDS011;56625;54.322;18.582;2022-11-09T00:18:14;11.60;;;4.50;;
69434;SDS011;56625;54.322;18.582;2022-11-09T00:20:40;12.00;;;4.80;;
69434;SDS011;56625;54.322;18.582;2022-11-09T00:23:17;12.00;;;4.30;;
69434;SDS011;56625;54.322;18.582;2022-11-09T00:25:44;12.50;;;4.60;;
69434;SDS011;56625;54.322;18.582;2022-11-09T00:28:11;10.50;;;4.80;;
69434;SDS011;56625;54.322;18.582;2022-11-09T00:30:39;10.60;;;4.40;;
69434;SDS011;56625;54.322;18.582;2022-11-09T00:33:06;8.20;;;3.20;;
69434;SDS011;56625;54.322;18.582;2022-11-09T00:35:37;10.40;;;4.60;;
69434;SDS011;56625;54.322;18.582;2022-11-09T00:38:04;11.80;;;4.70;;
69434;SDS011;56625;54.322;18.582;2022-11-09T00:40:30;11.90;;;4.70;;
69434;SDS011;56625;54.322;18.582;2022-11-09T00:42:56;13.00;;;5.50;;
69434;SDS011;56625;54.322;18.582;2022-11-09T00:45:23;12.60;;;5.10;;
69434;SDS011;56625;54.322;18.582;2022-11-09T00:47:49;8.50;;;3.30;;
69434;SDS011;56625;54.322;18.582;2022-11-09T00:50:16;15.00;;;5.20;;
69434;SDS011;56625;54.322;18.582;2022-11-09T00:52:42;13.80;;;4.80;;
69434;SDS011;56625;54.322;18.582;2022-11-09T00:55:10;10.60;;;4.50;;
69434;SDS011;56625;54.322;18.582;2022-11-09T00:57:36;9.80;;;3.60;;
69434;SDS011;56625;54.322;18.582;2022-11-09T01:00:03;11.80;;;4.70;;
69434;SDS011;56625;54.322;18.582;2022-11-09T01:02:30;11.60;;;4.90;;
69434;SDS011;56625;54.322;18.582;2022-11-09T01:04:57;10.60;;;4.70;;
69434;SDS011;56625;54.322;18.582;2022-11-09T01:07:25;11.80;;;5.10;;
69434;SDS011;56625;54.322;18.582;2022-11-09T01:09:51;11.60;;;4.90;;
69434;SDS011;56625;54.322;18.582;2022-11-09T01:12:18;12.50;;;5.30;;
69434;SDS011;56625;54.322;18.582;2022-11-09T01:14:44;14.50;;;4.90;;
69434;SDS011;56625;54.322;18.582;2022-11-09T01:17:11;11.90;;;4.80;;
69434;SDS011;56625;54.322;18.582;2022-11-09T01:19:37;9.90;;;4.00;;
69434;SDS011;56625;54.322;18.582;2022-11-09T01:22:04;10.50;;;3.10;;
69434;SDS011;56625;54.322;18.582;2022-11-09T01:24:30;11.70;;;4.90;;
69434;SDS011;56625;54.322;18.582;2022-11-09T01:26:57;13.80;;;4.70;;
69434;SDS011;56625;54.322;18.582;2022-11-09T01:29:23;10.80;;;4.60;;
69434;SDS011;56625;54.322;18.582;2022-11-09T01:31:53;12.70;;;4.40;;
69434;SDS011;56625;54.322;18.582;2022-11-09T01:34:21;11.20;;;4.40;;
69434;SDS011;56625;54.322;18.582;2022-11-09T01:36:51;11.80;;;4.80;;
69434;SDS011;56625;54.322;18.582;2022-11-09T01:39:18;14.70;;;4.90;;
69434;SDS011;56625;54.322;18.582;2022-11-09T01:41:46;14.00;;;5.30;;
69434;SDS011;56625;54.322;18.582;2022-11-09T01:44:15;13.30;;;4.80;;
69434;SDS011;56625;54.322;18.582;2022-11-09T01:47:03;11.80;;;4.90;;
69434;SDS011;56625;54.322;18.582;2022-11-09T01:54:54;12.20;;;5.10;;
69434;SDS011;56625;54.322;18.582;2022-11-09T01:57:32;12.30;;;4.80;;
69434;SDS011;56625;54.322;18.582;2022-11-09T02:00:05;11.80;;;5.30;;
69434;SDS011;56625;54.322;18.582;2022-11-09T02:02:35;12.60;;;5.30;;
69434;SDS011;56625;54.322;18.582;2022-11-09T02:05:10;15.00;;;5.20;;
69434;SDS011;56625;54.322;18.582;2022-11-09T02:07:40;15.30;;;6.20;;
69434;SDS011;56625;54.322;18.582;2022-11-09T02:10:28;13.60;;;5.30;;
69434;SDS011;56625;54.322;18.582;2022-11-09T02:12:59;12.30;;;5.30;;
69434;SDS011;56625;54.322;18.582;2022-11-09T02:15:28;12.50;;;5.60;;
69434;SDS011;56625;54.322;18.582;2022-11-09T02:17:56;11.70;;;5.20;;
69434;SDS011;56625;54.322;18.582;2022-11-09T02:20:23;13.80;;;5.70;;
69434;SDS011;56625;54.322;18.582;2022-11-09T02:22:51;14.20;;;5.80;;
69434;SDS011;56625;54.322;18.582;2022-11-09T02:25:17;11.00;;;5.40;;
69434;SDS011;56625;54.322;18.582;2022-11-09T02:27:44;12.90;;;5.40;;
69434;SDS011;56625;54.322;18.582;2022-11-09T02:30:12;12.10;;;5.70;;
69434;SDS011;56625;54.322;18.582;2022-11-09T02:32:41;14.00;;;5.80;;
69434;SDS011;56625;54.322;18.582;2022-11-09T02:35:08;14.00;;;5.60;;
69434;SDS011;56625;54.322;18.582;2022-11-09T02:37:44;13.50;;;5.50;;
69434;SDS011;56625;54.322;18.582;2022-11-09T02:40:22;13.60;;;5.80;;
69434;SDS011;56625;54.322;18.582;2022-11-09T02:43:00;13.10;;;5.70;;
69434;SDS011;56625;54.322;18.582;2022-11-09T02:45:27;13.70;;;5.50;;
69434;SDS011;56625;54.322;18.582;2022-11-09T02:47:54;12.40;;;5.30;;
69434;SDS011;56625;54.322;18.582;2022-11-09T02:50:21;14.60;;;5.80;;
69434;SDS011;56625;54.322;18.582;2022-11-09T02:52:47;15.50;;;5.60;;
69434;SDS011;56625;54.322;18.582;2022-11-09T02:55:14;13.60;;;5.00;;
69434;SDS011;56625;54.322;18.582;2022-11-09T02:57:41;14.00;;;5.50;;
69434;SDS011;56625;54.322;18.582;2022-11-09T03:00:08;12.80;;;5.50;;
69434;SDS011;56625;54.322;18.582;2022-11-09T03:02:35;12.70;;;5.50;;
69434;SDS011;56625;54.322;18.582;2022-11-09T03:05:03;12.60;;;5.50;;
69434;SDS011;56625;54.322;18.582;2022-11-09T03:07:30;13.00;;;5.50;;
69434;SDS011;56625;54.322;18.582;2022-11-09T03:09:57;13.20;;;5.60;;
69434;SDS011;56625;54.322;18.582;2022-11-09T03:12:24;14.40;;;5.80;;
69434;SDS011;56625;54.322;18.582;2022-11-09T03:15:02;11.90;;;5.90;;
69434;SDS011;56625;54.322;18.582;2022-11-09T03:17:32;13.70;;;5.80;;
69434;SDS011;56625;54.322;18.582;2022-11-09T03:19:59;13.60;;;5.30;;
69434;SDS011;56625;54.322;18.582;2022-11-09T03:22:27;12.10;;;5.90;;
69434;SDS011;56625;54.322;18.582;2022-11-09T03:24:54;14.80;;;5.70;;
69434;SDS011;56625;54.322;18.582;2022-11-09T03:27:21;12.60;;;5.30;;
69434;SDS011;56625;54.322;18.582;2022-11-09T03:29:47;15.80;;;5.70;;
69434;SDS011;56625;54.322;18.582;2022-11-09T03:32:14;13.70;;;6.00;;
69434;SDS011;56625;54.322;18.582;2022-11-09T03:34:40;13.70;;;5.90;;
69434;SDS011;56625;54.322;18.582;2022-11-09T03:37:07;14.30;;;5.80;;
69434;SDS011;56625;54.322;18.582;2022-11-09T03:39:33;14.60;;;6.00;;
69434;SDS011;56625;54.322;18.582;2022-11-09T03:42:00;14.00;;;5.20;;
69434;SDS011;56625;54.322;18.582;2022-11-09T03:44:27;13.90;;;6.10;;
69434;SDS011;56625;54.322;18.582;2022-11-09T03:46:53;13.90;;;5.90;;
69434;SDS011;56625;54.322;18.582;2022-11-09T03:49:20;15.80;;;6.00;;
69434;SDS011;56625;54.322;18.582;2022-11-09T03:51:49;12.90;;;5.80;;
69434;SDS011;56625;54.322;18.582;2022-11-09T03:54:16;16.00;;;6.70;;
69434;SDS011;56625;54.322;18.582;2022-11-09T03:56:43;12.90;;;5.80;;
69434;SDS011;56625;54.322;18.582;2022-11-09T03:59:09;12.80;;;6.00;;
69434;SDS011;56625;54.322;18.582;2022-11-09T04:01:36;16.20;;;6.60;;
69434;SDS011;56625;54.322;18.582;2022-11-09T04:04:03;14.10;;;6.30;;
69434;SDS011;56625;54.322;18.582;2022-11-09T04:06:30;13.90;;;6.10;;
69434;SDS011;56625;54.322;18.582;2022-11-09T04:08:56;13.50;;;6.50;;
69434;SDS011;56625;54.322;18.582;2022-11-09T04:11:23;15.20;;;6.40;;
69434;SDS011;56625;54.322;18.582;2022-11-09T04:13:49;14.90;;;6.20;;
69434;SDS011;56625;54.322;18.582;2022-11-09T04:16:16;16.00;;;6.30;;
69434;SDS011;56625;54.322;18.582;2022-11-09T04:18:43;14.40;;;7.00;;
69434;SDS011;56625;54.322;18.582;2022-11-09T04:21:09;15.50;;;6.60;;
69434;SDS011;56625;54.322;18.582;2022-11-09T04:23:36;15.90;;;7.20;;
69434;SDS011;56625;54.322;18.582;2022-11-09T04:26:02;16.50;;;7.00;;
69434;SDS011;56625;54.322;18.582;2022-11-09T04:28:29;14.50;;;7.00;;
69434;SDS011;56625;54.322;18.582;2022-11-09T04:30:59;19.30;;;8.30;;
69434;SDS011;56625;54.322;18.582;2022-11-09T04:33:27;14.70;;;6.90;;
69434;SDS011;56625;54.322;18.582;2022-11-09T04:36:00;15.00;;;7.20;;
69434;SDS011;56625;54.322;18.582;2022-11-09T04:38:28;14.70;;;6.30;;
69434;SDS011;56625;54.322;18.582;2022-11-09T04:40:59;16.60;;;6.80;;
69434;SDS011;56625;54.322;18.582;2022-11-09T04:43:26;17.20;;;6.60;;
69434;SDS011;56625;54.322;18.582;2022-11-09T04:45:54;13.10;;;5.90;;
69434;SDS011;56625;54.322;18.582;2022-11-09T04:48:21;16.00;;;6.70;;
69434;SDS011;56625;54.322;18.582;2022-11-09T04:50:47;15.70;;;7.10;;
69434;SDS011;56625;54.322;18.582;2022-11-09T04:53:14;17.10;;;6.90;;
69434;SDS011;56625;54.322;18.582;2022-11-09T04:55:41;14.60;;;5.90;;
69434;SDS011;56625;54.322;18.582;2022-11-09T04:58:08;15.10;;;7.00;;
69434;SDS011;56625;54.322;18.582;2022-11-09T05:00:36;17.30;;;6.80;;
69434;SDS011;56625;54.322;18.582;2022-11-09T05:03:04;15.50;;;7.10;;
69434;SDS011;56625;54.322;18.582;2022-11-09T05:05:33;16.20;;;7.30;;
69434;SDS011;56625;54.322;18.582;2022-11-09T05:08:01;16.00;;;7.20;;
69434;SDS011;56625;54.322;18.582;2022-11-09T05:10:30;16.10;;;7.50;;
69434;SDS011;56625;54.322;18.582;2022-11-09T05:12:58;16.40;;;7.00;;
69434;SDS011;56625;54.322;18.582;2022-11-09T05:15:27;14.10;;;6.60;;
69434;SDS011;56625;54.322;18.582;2022-11-09T05:17:53;16.70;;;7.00;;
69434;SDS011;56625;54.322;18.582;2022-11-09T05:20:20;15.60;;;6.50;;
69434;SDS011;56625;54.322;18.582;2022-11-09T05:22:47;17.30;;;7.80;;
69434;SDS011;56625;54.322;18.582;2022-11-09T05:25:33;17.00;;;7.50;;
69434;SDS011;56625;54.322;18.582;2022-11-09T05:28:00;17.40;;;6.80;;
69434;SDS011;56625;54.322;18.582;2022-11-09T05:30:26;16.20;;;7.50;;
69434;SDS011;56625;54.322;18.582;2022-11-09T05:32:53;15.70;;;7.30;;
69434;SDS011;56625;54.322;18.582;2022-11-09T05:35:19;16.40;;;7.90;;
69434;SDS011;56625;54.322;18.582;2022-11-09T05:37:47;12.30;;;5.40;;
69434;SDS011;56625;54.322;18.582;2022-11-09T05:40:16;15.80;;;7.50;;
69434;SDS011;56625;54.322;18.582;2022-11-09T05:42:44;15.70;;;7.10;;
69434;SDS011;56625;54.322;18.582;2022-11-09T05:45:13;14.30;;;6.60;;
69434;SDS011;56625;54.322;18.582;2022-11-09T05:48:02;18.60;;;7.20;;
69434;SDS011;56625;54.322;18.582;2022-11-09T05:50:30;17.90;;;7.50;;
69434;SDS011;56625;54.322;18.582;2022-11-09T05:53:00;16.20;;;7.30;;
69434;SDS011;56625;54.322;18.582;2022-11-09T05:55:27;16.00;;;7.20;;
69434;SDS011;56625;54.322;18.582;2022-11-09T05:57:54;16.90;;;8.00;;
69434;SDS011;56625;54.322;18.582;2022-11-09T06:00:21;17.40;;;7.90;;
69434;SDS011;56625;54.322;18.582;2022-11-09T06:02:49;15.80;;;8.20;;
69434;SDS011;56625;54.322;18.582;2022-11-09T06:05:16;17.80;;;8.40;;
69434;SDS011;56625;54.322;18.582;2022-11-09T06:07:42;17.10;;;8.20;;
69434;SDS011;56625;54.322;18.582;2022-11-09T06:10:09;14.90;;;7.20;;
69434;SDS011;56625;54.322;18.582;2022-11-09T06:12:36;17.20;;;7.20;;
69434;SDS011;56625;54.322;18.582;2022-11-09T06:15:04;16.50;;;8.00;;
69434;SDS011;56625;54.322;18.582;2022-11-09T06:17:31;15.80;;;7.70;;
69434;SDS011;56625;54.322;18.582;2022-11-09T06:19:58;14.20;;;6.70;;
69434;SDS011;56625;54.322;18.582;2022-11-09T06:22:24;18.00;;;8.60;;
69434;SDS011;56625;54.322;18.582;2022-11-09T06:24:51;19.30;;;7.70;;
69434;SDS011;56625;54.322;18.582;2022-11-09T06:27:17;16.00;;;7.00;;
69434;SDS011;56625;54.322;18.582;2022-11-09T06:29:44;15.20;;;7.20;;
69434;SDS011;56625;54.322;18.582;2022-11-09T06:32:10;14.50;;;6.30;;
69434;SDS011;56625;54.322;18.582;2022-11-09T06:34:37;15.40;;;7.20;;
69434;SDS011;56625;54.322;18.582;2022-11-09T06:37:03;16.90;;;6.80;;
69434;SDS011;56625;54.322;18.582;2022-11-09T06:39:30;18.90;;;7.90;;
69434;SDS011;56625;54.322;18.582;2022-11-09T06:41:57;17.90;;;7.90;;
69434;SDS011;56625;54.322;18.582;2022-11-09T06:44:23;21.60;;;8.10;;
69434;SDS011;56625;54.322;18.582;2022-11-09T06:46:50;18.70;;;7.80;;
69434;SDS011;56625;54.322;18.582;2022-11-09T06:49:16;18.40;;;8.10;;
69434;SDS011;56625;54.322;18.582;2022-11-09T06:51:43;15.10;;;7.50;;
69434;SDS011;56625;54.322;18.582;2022-11-09T06:54:23;17.90;;;8.40;;
69434;SDS011;56625;54.322;18.582;2022-11-09T06:56:49;19.10;;;8.30;;
69434;SDS011;56625;54.322;18.582;2022-11-09T06:59:16;16.30;;;8.80;;
69434;SDS011;56625;54.322;18.582;2022-11-09T07:01:42;17.30;;;8.10;;
69434;SDS011;56625;54.322;18.582;2022-11-09T07:04:11;15.80;;;7.20;;
69434;SDS011;56625;54.322;18.582;2022-11-09T07:06:40;14.90;;;7.00;;
69434;SDS011;56625;54.322;18.582;2022-11-09T07:09:11;16.50;;;8.10;;
69434;SDS011;56625;54.322;18.582;2022-11-09T07:11:38;18.80;;;8.40;;
69434;SDS011;56625;54.322;18.582;2022-11-09T07:14:05;19.50;;;8.30;;
69434;SDS011;56625;54.322;18.582;2022-11-09T07:16:32;19.40;;;8.30;;
69434;SDS011;56625;54.322;18.582;2022-11-09T07:18:59;15.50;;;7.20;;
69434;SDS011;56625;54.322;18.582;2022-11-09T07:21:25;17.30;;;7.90;;
69434;SDS011;56625;54.322;18.582;2022-11-09T07:23:52;18.70;;;7.40;;
69434;SDS011;56625;54.322;18.582;2022-11-09T07:26:18;16.00;;;7.70;;
69434;SDS011;56625;54.322;18.582;2022-11-09T07:28:45;17.30;;;8.20;;
69434;SDS011;56625;54.322;18.582;2022-11-09T07:31:12;17.40;;;9.00;;
69434;SDS011;56625;54.322;18.582;2022-11-09T07:33:38;17.70;;;8.60;;
69434;SDS011;56625;54.322;18.582;2022-11-09T07:36:05;20.00;;;8.30;;
69434;SDS011;56625;54.322;18.582;2022-11-09T07:38:32;14.70;;;6.80;;
69434;SDS011;56625;54.322;18.582;2022-11-09T07:41:00;17.10;;;8.00;;
69434;SDS011;56625;54.322;18.582;2022-11-09T07:43:28;22.00;;;8.30;;
69434;SDS011;56625;54.322;18.582;2022-11-09T07:45:55;18.40;;;8.30;;
69434;SDS011;56625;54.322;18.582;2022-11-09T07:48:22;18.10;;;7.70;;
69434;SDS011;56625;54.322;18.582;2022-11-09T07:50:48;16.70;;;7.30;;
69434;SDS011;56625;54.322;18.582;2022-11-09T07:53:16;17.50;;;8.30;;
69434;SDS011;56625;54.322;18.582;2022-11-09T07:55:42;17.10;;;5.10;;
69434;SDS011;56625;54.322;18.582;2022-11-09T07:58:14;20.00;;;7.90;;
69434;SDS011;56625;54.322;18.582;2022-11-09T08:00:42;19.10;;;8.40;;
69434;SDS011;56625;54.322;18.582;2022-11-09T08:03:09;19.40;;;8.80;;
69434;SDS011;56625;54.322;18.582;2022-11-09T08:05:37;19.10;;;8.90;;
69434;SDS011;56625;54.322;18.582;2022-11-09T08:08:06;20.20;;;8.80;;
69434;SDS011;56625;54.322;18.582;2022-11-09T08:10:36;16.70;;;7.80;;
69434;SDS011;56625;54.322;18.582;2022-11-09T08:13:05;15.00;;;7.50;;
69434;SDS011;56625;54.322;18.582;2022-11-09T08:15:36;17.70;;;9.00;;
69434;SDS011;56625;54.322;18.582;2022-11-09T08:18:06;18.60;;;8.80;;
69434;SDS011;56625;54.322;18.582;2022-11-09T08:20:44;17.70;;;8.60;;
69434;SDS011;56625;54.322;18.582;2022-11-09T08:23:12;18.60;;;8.90;;
69434;SDS011;56625;54.322;18.582;2022-11-09T08:25:40;16.60;;;8.30;;
69434;SDS011;56625;54.322;18.582;2022-11-09T08:28:07;16.20;;;7.60;;
69434;SDS011;56625;54.322;18.582;2022-11-09T08:30:42;19.20;;;8.60;;
69434;SDS011;56625;54.322;18.582;2022-11-09T08:33:11;16.30;;;7.90;;
69434;SDS011;56625;54.322;18.582;2022-11-09T08:35:38;15.70;;;7.50;;
69434;SDS011;56625;54.322;18.582;2022-11-09T08:38:04;13.40;;;5.70;;
69434;SDS011;56625;54.322;18.582;2022-11-09T08:40:32;15.30;;;6.00;;
69434;SDS011;56625;54.322;18.582;2022-11-09T08:43:01;16.00;;;7.00;;
69434;SDS011;56625;54.322;18.582;2022-11-09T08:45:35;15.90;;;7.30;;
69434;SDS011;56625;54.322;18.582;2022-11-09T08:48:04;17.90;;;7.60;;
69434;SDS011;56625;54.322;18.582;2022-11-09T08:50:34;16.80;;;7.50;;
69434;SDS011;56625;54.322;18.582;2022-11-09T08:53:04;17.90;;;7.50;;
69434;SDS011;56625;54.322;18.582;2022-11-09T08:55:33;14.40;;;7.50;;
69434;SDS011;56625;54.322;18.582;2022-11-09T08:58:02;12.60;;;4.70;;
69434;SDS011;56625;54.322;18.582;2022-11-09T09:00:32;13.90;;;6.00;;
69434;SDS011;56625;54.322;18.582;2022-11-09T09:03:05;16.00;;;6.50;;
69434;SDS011;56625;54.322;18.582;2022-11-09T09:05:33;14.50;;;7.50;;
69434;SDS011;56625;54.322;18.582;2022-11-09T09:08:01;15.90;;;7.70;;
69434;SDS011;56625;54.322;18.582;2022-11-09T09:10:30;15.00;;;7.40;;
69434;SDS011;56625;54.322;18.582;2022-11-09T09:12:57;16.00;;;7.60;;
69434;SDS011;56625;54.322;18.582;2022-11-09T09:15:25;15.10;;;6.60;;
69434;SDS011;56625;54.322;18.582;2022-11-09T09:17:51;10.20;;;4.10;;
69434;SDS011;56625;54.322;18.582;2022-11-09T09:20:18;15.00;;;7.30;;
69434;SDS011;56625;54.322;18.582;2022-11-09T09:22:45;13.20;;;5.20;;
69434;SDS011;56625;54.322;18.582;2022-11-09T09:25:12;18.80;;;8.00;;
69434;SDS011;56625;54.322;18.582;2022-11-09T09:27:38;14.90;;;7.30;;
69434;SDS011;56625;54.322;18.582;2022-11-09T09:30:05;16.60;;;7.40;;
69434;SDS011;56625;54.322;18.582;2022-11-09T09:32:33;17.20;;;7.60;;
69434;SDS011;56625;54.322;18.582;2022-11-09T09:34:59;16.20;;;7.90;;
69434;SDS011;56625;54.322;18.582;2022-11-09T09:37:26;16.60;;;7.50;;
69434;SDS011;56625;54.322;18.582;2022-11-09T09:39:52;15.10;;;7.20;;
69434;SDS011;56625;54.322;18.582;2022-11-09T09:42:23;15.80;;;7.40;;
69434;SDS011;56625;54.322;18.582;2022-11-09T09:45:03;14.00;;;7.20;;
69434;SDS011;56625;54.322;18.582;2022-11-09T09:50:25;16.00;;;7.30;;
69434;SDS011;56625;54.322;18.582;2022-11-09T09:52:59;15.10;;;7.20;;
69434;SDS011;56625;54.322;18.582;2022-11-09T09:55:59;16.90;;;7.60;;
69434;SDS011;56625;54.322;18.582;2022-11-09T09:58:32;15.70;;;7.60;;
69434;SDS011;56625;54.322;18.582;2022-11-09T10:01:09;16.00;;;7.70;;
69434;SDS011;56625;54.322;18.582;2022-11-09T10:03:49;14.00;;;6.80;;
69434;SDS011;56625;54.322;18.582;2022-11-09T10:09:24;14.70;;;7.30;;
69434;SDS011;56625;54.322;18.582;2022-11-09T10:12:24;14.40;;;7.80;;
69434;SDS011;56625;54.322;18.582;2022-11-09T10:15:16;14.20;;;6.70;;
69434;SDS011;56625;54.322;18.582;2022-11-09T10:23:47;16.40;;;7.30;;
69434;SDS011;56625;54.322;18.582;2022-11-09T10:26:32;15.90;;;7.80;;
69434;SDS011;56625;54.322;18.582;2022-11-09T10:29:24;14.40;;;7.40;;
69434;SDS011;56625;54.322;18.582;2022-11-09T10:31:57;15.30;;;7.50;;
69434;SDS011;56625;54.322;18.582;2022-11-09T10:37:31;15.00;;;7.20;;
69434;SDS011;56625;54.322;18.582;2022-11-09T10:42:34;13.70;;;6.60;;
69434;SDS011;56625;54.322;18.582;2022-11-09T10:45:33;14.40;;;7.10;;
69434;SDS011;56625;54.322;18.582;2022-11-09T10:48:06;15.50;;;7.10;;
69434;SDS011;56625;54.322;18.582;2022-11-09T10:50:50;18.40;;;8.00;;
69434;SDS011;56625;54.322;18.582;2022-11-09T10:53:19;14.70;;;7.80;;
69434;SDS011;56625;54.322;18.582;2022-11-09T10:56:04;15.50;;;7.60;;
69434;SDS011;56625;54.322;18.582;2022-11-09T10:58:45;16.20;;;7.20;;
69434;SDS011;56625;54.322;18.582;2022-11-09T11:01:17;13.60;;;6.50;;
69434;SDS011;56625;54.322;18.582;2022-11-09T11:03:48;14.90;;;7.60;;
69434;SDS011;56625;54.322;18.582;2022-11-09T11:08:49;16.30;;;7.70;;
69434;SDS011;56625;54.322;18.582;2022-11-09T11:11:25;19.60;;;8.90;;
69434;SDS011;56625;54.322;18.582;2022-11-09T11:17:00;21.50;;;8.70;;
69434;SDS011;56625;54.322;18.582;2022-11-09T11:24:59;15.50;;;6.40;;
69434;SDS011;56625;54.322;18.582;2022-11-09T11:30:33;16.60;;;7.30;;
69434;SDS011;56625;54.322;18.582;2022-11-09T11:33:14;15.80;;;7.80;;
69434;SDS011;56625;54.322;18.582;2022-11-09T11:35:52;17.00;;;7.10;;
69434;SDS011;56625;54.322;18.582;2022-11-09T11:38:29;16.00;;;7.00;;
69434;SDS011;56625;54.322;18.582;2022-11-09T11:41:36;14.80;;;6.80;;
69434;SDS011;56625;54.322;18.582;2022-11-09T11:50:16;13.90;;;7.10;;
69434;SDS011;56625;54.322;18.582;2022-11-09T11:53:12;15.50;;;6.20;;
69434;SDS011;56625;54.322;18.582;2022-11-09T11:56:25;16.10;;;7.20;;
69434;SDS011;56625;54.322;18.582;2022-11-09T12:02:02;12.80;;;5.70;;
69434;SDS011;56625;54.322;18.582;2022-11-09T12:05:03;12.80;;;5.60;;
69434;SDS011;56625;54.322;18.582;2022-11-09T12:10:45;15.90;;;7.30;;
69434;SDS011;56625;54.322;18.582;2022-11-09T12:13:35;16.40;;;7.60;;
69434;SDS011;56625;54.322;18.582;2022-11-09T12:22:14;15.30;;;7.40;;
69434;SDS011;56625;54.322;18.582;2022-11-09T12:30:22;14.40;;;5.40;;
69434;SDS011;56625;54.322;18.582;2022-11-09T12:33:03;16.60;;;6.40;;
69434;SDS011;56625;54.322;18.582;2022-11-09T12:36:08;12.20;;;4.90;;
69434;SDS011;56625;54.322;18.582;2022-11-09T12:38:59;12.10;;;4.10;;
69434;SDS011;56625;54.322;18.582;2022-11-09T12:41:34;17.50;;;6.50;;
69434;SDS011;56625;54.322;18.582;2022-11-09T12:44:21;12.20;;;4.10;;
69434;SDS011;56625;54.322;18.582;2022-11-09T12:46:59;18.80;;;6.00;;
69434;SDS011;56625;54.322;18.582;2022-11-09T12:49:47;14.00;;;5.30;;
69434;SDS011;56625;54.322;18.582;2022-11-09T12:52:16;12.70;;;5.70;;
69434;SDS011;56625;54.322;18.582;2022-11-09T12:54:48;15.90;;;6.30;;
69434;SDS011;56625;54.322;18.582;2022-11-09T12:57:22;11.60;;;5.10;;
69434;SDS011;56625;54.322;18.582;2022-11-09T12:59:53;11.90;;;4.60;;
69434;SDS011;56625;54.322;18.582;2022-11-09T13:02:28;15.30;;;7.10;;
69434;SDS011;56625;54.322;18.582;2022-11-09T13:05:00;13.90;;;6.00;;
69434;SDS011;56625;54.322;18.582;2022-11-09T13:07:30;11.60;;;4.90;;
69434;SDS011;56625;54.322;18.582;2022-11-09T13:10:25;15.00;;;5.80;;
69434;SDS011;56625;54.322;18.582;2022-11-09T13:15:38;12.00;;;5.50;;
69434;SDS011;56625;54.322;18.582;2022-11-09T13:18:45;10.30;;;3.50;;
69434;SDS011;56625;54.322;18.582;2022-11-09T13:23:50;11.50;;;4.90;;
69434;SDS011;56625;54.322;18.582;2022-11-09T13:32:26;11.00;;;4.90;;
69434;SDS011;56625;54.322;18.582;2022-11-09T13:34:57;8.00;;;3.10;;
69434;SDS011;56625;54.322;18.582;2022-11-09T13:43:31;11.80;;;5.30;;
69434;SDS011;56625;54.322;18.582;2022-11-09T13:46:22;14.20;;;6.20;;
69434;SDS011;56625;54.322;18.582;2022-11-09T13:48:51;14.90;;;6.40;;
69434;SDS011;56625;54.322;18.582;2022-11-09T13:54:04;11.00;;;4.30;;
69434;SDS011;56625;54.322;18.582;2022-11-09T13:57:03;11.80;;;4.80;;
69434;SDS011;56625;54.322;18.582;2022-11-09T13:59:45;17.70;;;7.40;;
69434;SDS011;56625;54.322;18.582;2022-11-09T14:02:18;15.40;;;7.00;;
69434;SDS011;56625;54.322;18.582;2022-11-09T14:04:46;14.70;;;6.10;;
69434;SDS011;56625;54.322;18.582;2022-11-09T14:13:26;16.10;;;7.00;;
69434;SDS011;56625;54.322;18.582;2022-11-09T14:22:39;14.40;;;7.10;;
69434;SDS011;56625;54.322;18.582;2022-11-09T14:25:14;16.10;;;7.60;;
69434;SDS011;56625;54.322;18.582;2022-11-09T14:27:48;15.70;;;7.50;;
69434;SDS011;56625;54.322;18.582;2022-11-09T14:30:27;15.60;;;6.70;;
69434;SDS011;56625;54.322;18.582;2022-11-09T14:32:57;14.20;;;6.40;;
69434;SDS011;56625;54.322;18.582;2022-11-09T14:38:14;15.50;;;6.50;;
69434;SDS011;56625;54.322;18.582;2022-11-09T14:40:45;15.70;;;6.80;;
69434;SDS011;56625;54.322;18.582;2022-11-09T14:43:23;12.80;;;4.70;;
69434;SDS011;56625;54.322;18.582;2022-11-09T14:45:57;17.30;;;6.80;;
69434;SDS011;56625;54.322;18.582;2022-11-09T14:48:27;16.80;;;8.00;;
69434;SDS011;56625;54.322;18.582;2022-11-09T14:50:59;12.60;;;5.70;;
69434;SDS011;56625;54.322;18.582;2022-11-09T14:53:30;18.20;;;8.00;;
69434;SDS011;56625;54.322;18.582;2022-11-09T14:56:04;18.10;;;7.20;;
69434;SDS011;56625;54.322;18.582;2022-11-09T14:58:35;13.20;;;4.60;;
69434;SDS011;56625;54.322;18.582;2022-11-09T15:06:48;10.30;;;4.00;;
69434;SDS011;56625;54.322;18.582;2022-11-09T15:09:19;14.80;;;6.90;;
69434;SDS011;56625;54.322;18.582;2022-11-09T15:11:50;15.70;;;7.10;;
69434;SDS011;56625;54.322;18.582;2022-11-09T15:14:31;15.40;;;7.40;;
69434;SDS011;56625;54.322;18.582;2022-11-09T15:17:33;14.50;;;6.80;;
69434;SDS011;56625;54.322;18.582;2022-11-09T15:22:47;17.10;;;7.20;;
69434;SDS011;56625;54.322;18.582;2022-11-09T15:25:27;16.60;;;7.90;;
69434;SDS011;56625;54.322;18.582;2022-11-09T15:28:00;13.00;;;6.50;;
69434;SDS011;56625;54.322;18.582;2022-11-09T15:31:03;13.90;;;7.10;;
69434;SDS011;56625;54.322;18.582;2022-11-09T15:33:46;16.70;;;8.00;;
69434;SDS011;56625;54.322;18.582;2022-11-09T15:39:04;18.70;;;8.60;;
69434;SDS011;56625;54.322;18.582;2022-11-09T15:41:41;18.40;;;8.10;;
69434;SDS011;56625;54.322;18.582;2022-11-09T15:44:09;16.50;;;7.40;;
69434;SDS011;56625;54.322;18.582;2022-11-09T15:46:49;15.80;;;8.20;;
69434;SDS011;56625;54.322;18.582;2022-11-09T15:49:26;17.00;;;7.60;;
69434;SDS011;56625;54.322;18.582;2022-11-09T15:51:54;17.00;;;8.60;;
69434;SDS011;56625;54.322;18.582;2022-11-09T15:54:22;15.60;;;7.80;;
69434;SDS011;56625;54.322;18.582;2022-11-09T15:56:49;17.20;;;8.20;;
69434;SDS011;56625;54.322;18.582;2022-11-09T15:59:25;14.60;;;7.10;;
69434;SDS011;56625;54.322;18.582;2022-11-09T16:01:52;16.70;;;7.90;;
69434;SDS011;56625;54.322;18.582;2022-11-09T16:04:19;14.10;;;7.10;;
69434;SDS011;56625;54.322;18.582;2022-11-09T16:06:46;18.00;;;7.80;;
69434;SDS011;56625;54.322;18.582;2022-11-09T16:09:14;15.50;;;7.70;;
69434;SDS011;56625;54.322;18.582;2022-11-09T16:11:41;16.10;;;7.90;;
69434;SDS011;56625;54.322;18.582;2022-11-09T16:14:07;9.90;;;4.10;;
69434;SDS011;56625;54.322;18.582;2022-11-09T16:16:34;16.40;;;7.20;;
69434;SDS011;56625;54.322;18.582;2022-11-09T16:19:01;17.00;;;6.90;;
69434;SDS011;56625;54.322;18.582;2022-11-09T16:21:27;15.30;;;6.10;;
69434;SDS011;56625;54.322;18.582;2022-11-09T16:23:54;16.80;;;8.10;;
69434;SDS011;56625;54.322;18.582;2022-11-09T16:26:24;17.20;;;8.00;;
69434;SDS011;56625;54.322;18.582;2022-11-09T16:28:53;18.20;;;8.10;;
69434;SDS011;56625;54.322;18.582;2022-11-09T16:31:20;17.20;;;8.10;;